»·PEaware :: N6594J KAMA-KAMA

N6594J :: KAMA-KAMA

FLIGHT INFORMATION

Flight Status: Arrived
Operator: Privately registered:
United States
More flights under this callsign
Pilot: Hub City Aviation Academy (12996)
Aircraft: PIPER PA-28 CHEROKEE ARCHER
(P28A)
More flights by this aircraft type
Origin: KAMA Amarillo Intl
United States
Destination: KAMA Amarillo Intl
United States
More flights between these airports :: More routes between these airports
Route: PNH
File this flight plan on PilotEdge
Remarks: multiple approaches
Altitude:
(Current/Filed)
6,000ft
Speed:
(Current/Filed)
110kts
Departed: 29-Jul-17 01:52 PM
Arrived: 29-Jul-17 02:46 PM
Distance/Time
Traveled:
0nm/0:54
Distance/Time
To Go:
Arrived

Flight Plot

Page will automatically refresh every two minutes.

Flight plan parsing failed; only flown route is shown


Map Options




Map Legend


Flown Route
Filed Route
Departure Airport
Arrival Airport
Navaid (VOR, NDB)
Fix

Horizontal Profiles

Position Reports

Time Latitude Longitude Heading Altitude Ground
Speed
29-Jul-17 13:41 35.218537 -101.707956 326 3610ft 0kts
29-Jul-17 13:42 35.218537 -101.707956 326 3610ft 0kts
29-Jul-17 13:43 35.218537 -101.707956 326 3610ft 0kts
29-Jul-17 13:44 35.218538 -101.707957 326 3610ft 0kts
29-Jul-17 13:45 35.218538 -101.707957 326 3610ft 0kts
29-Jul-17 13:46 35.218538 -101.707957 326 3610ft 0kts
29-Jul-17 13:47 35.218539 -101.707958 326 3610ft 0kts
29-Jul-17 13:48 35.219039 -101.710226 229 3610ft 11kts
29-Jul-17 13:49 35.216433 -101.714396 283 3610ft 11kts
29-Jul-17 13:50 35.211889 -101.720602 225 3610ft 37kts
29-Jul-17 13:51 35.203575 -101.731215 241 3610ft 28kts
29-Jul-17 13:52 35.204064 -101.731416 35 3610ft 0kts
29-Jul-17 13:53 35.204065 -101.731416 35 3610ft 0kts
29-Jul-17 13:54 35.204373 -101.731516 319 3610ft 4kts
29-Jul-17 13:55 35.212523 -101.723191 44 3763ft 85kts
29-Jul-17 13:56 35.230201 -101.709909 14 4666ft 78kts
29-Jul-17 13:57 35.252209 -101.698695 45 5267ft 99kts
29-Jul-17 13:58 35.271040 -101.672660 45 5771ft 105kts
29-Jul-17 13:59 35.287550 -101.649521 54 5985ft 114kts
29-Jul-17 14:00 35.277561 -101.611955 124 5992ft 128kts
29-Jul-17 14:01 35.256147 -101.576883 124 5981ft 128kts
29-Jul-17 14:02 35.234747 -101.541731 124 5981ft 129kts
29-Jul-17 14:03 35.202837 -101.541317 214 6001ft 129kts
29-Jul-17 14:04 35.172813 -101.565776 214 5978ft 129kts
29-Jul-17 14:05 35.143443 -101.589619 214 5988ft 128kts
29-Jul-17 14:06 35.119552 -101.619872 229 5882ft 132kts
29-Jul-17 14:07 35.096735 -101.654091 258 5465ft 136kts
29-Jul-17 14:08 35.082824 -101.696347 242 5275ft 129kts
29-Jul-17 14:09 35.064130 -101.733317 239 5281ft 127kts
29-Jul-17 14:10 35.045007 -101.769788 239 5282ft 127kts
29-Jul-17 14:11 35.025857 -101.806326 241 5280ft 127kts
29-Jul-17 14:12 35.034775 -101.841137 322 5301ft 119kts
29-Jul-17 14:13 35.059538 -101.868740 317 5280ft 120kts
29-Jul-17 14:14 35.087978 -101.877637 28 5295ft 118kts
29-Jul-17 14:15 35.113408 -101.849937 43 5178ft 121kts
29-Jul-17 14:16 35.136975 -101.820387 43 5182ft 120kts
29-Jul-17 14:17 35.159294 -101.792118 44 5115ft 95kts
29-Jul-17 14:18 35.174714 -101.771983 42 4852ft 85kts
29-Jul-17 14:19 35.193032 -101.749233 42 4150ft 98kts
29-Jul-17 14:20 35.209823 -101.726651 41 3627ft 63kts
29-Jul-17 14:21 35.225229 -101.708410 40 4102ft 87kts
29-Jul-17 14:22 35.243936 -101.680284 58 4357ft 109kts
29-Jul-17 14:23 35.258348 -101.648055 57 4834ft 106kts
29-Jul-17 14:24 35.272607 -101.616607 57 5317ft 104kts
29-Jul-17 14:25 35.288016 -101.583117 57 5391ft 120kts
29-Jul-17 14:26 35.304439 -101.547178 58 5382ft 121kts
29-Jul-17 14:27 35.320812 -101.511050 58 5382ft 121kts
29-Jul-17 14:28 35.336723 -101.474670 68 5372ft 123kts
29-Jul-17 14:29 35.338889 -101.432578 84 5381ft 124kts
29-Jul-17 14:30 35.342806 -101.391182 61 5392ft 120kts
29-Jul-17 14:31 35.363458 -101.361996 5 5387ft 117kts
29-Jul-17 14:32 35.377360 -101.391152 246 5396ft 125kts
29-Jul-17 14:33 35.358774 -101.427876 240 5381ft 127kts
29-Jul-17 14:34 35.339923 -101.464524 239 5381ft 127kts
29-Jul-17 14:35 35.311634 -101.481996 154 5395ft 128kts
29-Jul-17 14:36 35.307120 -101.445736 59 5398ft 121kts
29-Jul-17 14:37 35.323749 -101.409625 54 5383ft 121kts
29-Jul-17 14:38 35.342212 -101.375262 47 5377ft 120kts
29-Jul-17 14:39 35.368222 -101.383566 288 5392ft 121kts
29-Jul-17 14:40 35.355671 -101.422366 245 5385ft 127kts
29-Jul-17 14:41 35.338602 -101.460159 236 5386ft 127kts
29-Jul-17 14:42 35.318507 -101.495940 238 5381ft 127kts
29-Jul-17 14:43 35.301016 -101.534280 254 5288ft 126kts
29-Jul-17 14:44 35.293409 -101.574764 283 5291ft 122kts
29-Jul-17 14:45 35.273533 -101.610115 226 4985ft 126kts
29-Jul-17 14:46 35.252832 -101.647072 242 4284ft 128kts
29-Jul-17 14:47 35.237292 -101.681985 244 3857ft 104kts
29-Jul-17 14:48 35.224140 -101.708775 228 3627ft 76kts
29-Jul-17 14:49 35.217539 -101.715610 137 3610ft 14kts

Navigation Log

Ident Type
Flight plan parsing failed, navigation log unavailable